| time (UTC) | temp F | wind direction | speed MPH | gust MPH | rain 1hr in | rain 24hr in | rain mn in | humidity % | barometer mb |
| 20260508210056 | 65 | 315 | 2.0 | 9.0 | 0.00 | 0.00 | 0.00 | 27 | 1001.7 |
| 20260508204551 | 64 | 260 | 2.0 | 9.0 | 0.00 | 0.00 | 0.00 | 26 | 1001.9 |
| 20260508203116 | 66 | 321 | 3.0 | 9.0 | 0.00 | 0.00 | 0.00 | 25 | 1002.0 |
| 20260508201559 | 66 | 277 | 3.0 | 10.0 | 0.00 | 0.00 | 0.00 | 26 | 1002.0 |
| 20260508200103 | 65 | 281 | 3.0 | 11.0 | 0.00 | 0.00 | 0.00 | 26 | 1002.2 |
| 20260508194603 | 63 | 114 | 2.0 | 12.0 | 0.00 | 0.00 | 0.00 | 28 | 1002.5 |
| 20260508193137 | 64 | 275 | 2.0 | 8.0 | 0.00 | 0.00 | 0.00 | 26 | 1002.8 |
| 20260508191607 | 63 | 248 | 2.0 | 6.0 | 0.00 | 0.00 | 0.00 | 27 | 1003.1 |
| 20260508190107 | 64 | 160 | 3.0 | 9.0 | 0.00 | 0.00 | 0.00 | 26 | 1003.3 |
| 20260508184604 | 61 | 224 | 0.0 | 4.0 | 0.00 | 0.00 | 0.00 | 28 | 1003.5 |
| 20260508183105 | 63 | 275 | 1.0 | 7.0 | 0.00 | 0.00 | 0.00 | 27 | 1003.8 |
| 20260508181557 | 65 | 163 | 3.0 | 12.0 | 0.00 | 0.00 | 0.00 | 26 | 1004.0 |
| 20260508180132 | 64 | 172 | 2.0 | 7.0 | 0.00 | 0.00 | 0.00 | 28 | 1003.9 |
| 20260508174612 | 64 | 306 | 2.0 | 6.0 | 0.00 | 0.00 | 0.00 | 28 | 1004.2 |
| 20260508173054 | 62 | 198 | 3.0 | 11.0 | 0.00 | 0.00 | 0.00 | 28 | 1004.7 |
| 20260508171557 | 61 | 163 | 2.0 | 9.0 | 0.00 | 0.00 | 0.00 | 30 | 1005.0 |
| 20260508170057 | 61 | 255 | 1.0 | 6.0 | 0.00 | 0.00 | 0.00 | 29 | 1005.1 |
| 20260508164600 | 59 | 210 | 2.0 | 4.0 | 0.00 | 0.00 | 0.00 | 32 | 1005.4 |
| 20260508163056 | 58 | 277 | 1.0 | 7.0 | 0.00 | 0.00 | 0.00 | 31 | 1005.5 |
| 20260508161559 | 58 | 192 | 1.0 | 7.0 | 0.00 | 0.00 | 0.00 | 32 | 1005.7 |
| 20260508160054 | 60 | 284 | 3.0 | 10.0 | 0.00 | 0.00 | 0.00 | 29 | 1005.9 |
| 20260508154558 | 59 | 154 | 3.0 | 9.0 | 0.00 | 0.00 | 0.00 | 33 | 1006.1 |
| 20260508153055 | 58 | 311 | 4.0 | 10.0 | 0.00 | 0.00 | 0.00 | 32 | 1006.0 |
| 20260508151552 | 58 | 169 | 3.0 | 7.0 | 0.00 | 0.00 | 0.00 | 34 | 1006.0 |
| 20260508150053 | 57 | 284 | 3.0 | 9.0 | 0.00 | 0.00 | 0.00 | 36 | 1006.3 |
| 20260508144556 | 55 | 284 | 2.0 | 7.0 | 0.00 | 0.00 | 0.00 | 39 | 1006.5 |
| 20260508143104 | 54 | 143 | 2.0 | 7.0 | 0.00 | 0.00 | 0.00 | 41 | 1006.7 |
| 20260508141557 | 54 | 144 | 3.0 | 9.0 | 0.00 | 0.00 | 0.00 | 40 | 1006.7 |
| 20260508140105 | 53 | 289 | 1.0 | 9.0 | 0.00 | 0.00 | 0.00 | 46 | 1006.8 |
| 20260508134605 | 51 | 139 | 2.0 | 6.0 | 0.00 | 0.00 | 0.00 | 48 | 1006.9 |
| 20260508133054 | 49 | 159 | 3.0 | 6.0 | 0.00 | 0.00 | 0.00 | 51 | 1007.1 |
| 20260508131555 | 47 | 206 | 3.0 | 8.0 | 0.00 | 0.00 | 0.00 | 54 | 1007.0 |
| 20260508130055 | 45 | 150 | 1.0 | 4.0 | 0.00 | 0.00 | 0.00 | 57 | 1007.1 |
| 20260508124555 | 43 | 184 | 1.0 | 4.0 | 0.00 | 0.00 | 0.00 | 61 | 1007.3 |
| 20260508123053 | 41 | 143 | 0.0 | 2.0 | 0.00 | 0.00 | 0.00 | 70 | 1007.0 |
| 20260508121554 | 39 | 148 | 0.0 | 1.0 | 0.00 | 0.00 | 0.00 | 73 | 1007.0 |
| 20260508120057 | 36 | 149 | 0.0 | 1.0 | 0.00 | 0.00 | 0.00 | 77 | 1007.0 |
| 20260508114607 | 35 | 136 | 0.0 | 2.0 | 0.00 | 0.00 | 0.00 | 79 | 1007.2 |
| 20260508113103 | 33 | 156 | 1.0 | 3.0 | 0.00 | 0.00 | 0.00 | 82 | 1006.9 |
| 20260508111610 | 31 | 159 | 0.0 | 1.0 | 0.00 | 0.00 | 0.00 | 85 | 1007.1 |
| 20260508110100 | 30 | 0 | 0.0 | 1.0 | 0.00 | 0.00 | 0.00 | 85 | 1007.0 |
| 20260508104556 | 30 | 0 | 0.0 | 0.0 | 0.00 | 0.00 | 0.00 | 85 | 1007.0 |
| 20260508103053 | 30 | 0 | 0.0 | 2.0 | 0.00 | 0.00 | 0.00 | 87 | 1007.2 |
| 20260508101557 | 29 | 0 | 0.0 | 0.0 | 0.00 | 0.00 | 0.00 | 87 | 1007.3 |
| 20260508100057 | 29 | 148 | 0.0 | 2.0 | 0.00 | 0.00 | 0.00 | 87 | 1007.3 |
| 20260508094600 | 29 | 0 | 0.0 | 0.0 | 0.00 | 0.00 | 0.00 | 87 | 1007.5 |
| 20260508093101 | 29 | 0 | 0.0 | 1.0 | 0.00 | 0.00 | 0.00 | 87 | 1007.5 |
| 20260508091605 | 29 | 0 | 0.0 | 2.0 | 0.00 | 0.00 | 0.00 | 87 | 1007.4 |
| 20260508084557 | 28 | 0 | 0.0 | 0.0 | 0.00 | 0.00 | 0.00 | 87 | 1007.6 |
| 20260508083107 | 28 | 0 | 0.0 | 1.0 | 0.00 | 0.00 | 0.00 | 87 | 1007.5 |
| 20260508081559 | 29 | 134 | 0.0 | 1.0 | 0.00 | 0.00 | 0.00 | 87 | 1007.6 |
| 20260508074558 | 29 | 0 | 0.0 | 1.0 | 0.00 | 0.00 | 0.00 | 87 | 1007.9 |
| 20260508073055 | 29 | 0 | 0.0 | 1.0 | 0.00 | 0.00 | 0.00 | 86 | 1008.0 |
| 20260508071555 | 29 | 0 | 0.0 | 1.0 | 0.00 | 0.00 | 0.00 | 86 | 1008.1 |
| 20260508070056 | 29 | 0 | 0.0 | 0.0 | 0.00 | 0.00 | 0.00 | 85 | 1008.1 |
| 20260508064558 | 30 | 0 | 0.0 | 0.0 | 0.00 | 0.00 | 0.00 | 85 | 1008.2 |
| 20260508063101 | 30 | 0 | 0.0 | 1.0 | 0.00 | 0.00 | 0.00 | 84 | 1008.4 |
| 20260508061559 | 30 | 156 | 0.0 | 1.0 | 0.00 | 0.00 | 0.00 | 84 | 1008.3 |
| 20260508060058 | 31 | 0 | 0.0 | 2.0 | 0.00 | 0.00 | 0.00 | 83 | 1008.4 |
| 20260508054554 | 32 | 156 | 1.0 | 2.0 | 0.00 | 0.00 | 0.00 | 82 | 1008.6 |
| 20260508053101 | 32 | 148 | 1.0 | 2.0 | 0.00 | 0.00 | 0.00 | 81 | 1008.6 |
| 20260508051604 | 33 | 159 | 1.0 | 2.0 | 0.00 | 0.00 | 0.00 | 80 | 1008.7 |
| 20260508050100 | 33 | 0 | 0.0 | 0.0 | 0.00 | 0.00 | 0.00 | 79 | 1008.7 |
| 20260508044559 | 33 | 0 | 0.0 | 0.0 | 0.00 | 0.00 | 0.00 | 78 | 1008.8 |
| 20260508043055 | 34 | 0 | 0.0 | 1.0 | 0.00 | 0.00 | 0.00 | 77 | 1008.8 |
| 20260508041553 | 35 | 157 | 1.0 | 1.0 | 0.00 | 0.00 | 0.00 | 76 | 1008.8 |
| 20260508040057 | 35 | 0 | 0.0 | 1.0 | 0.00 | 0.00 | 0.00 | 74 | 1008.9 |
| 20260508034559 | 37 | 0 | 0.0 | 0.0 | 0.00 | 0.00 | 0.00 | 72 | 1008.9 |
| 20260508033101 | 38 | 0 | 0.0 | 0.0 | 0.00 | 0.00 | 0.00 | 70 | 1008.8 |
| 20260508031556 | 39 | 0 | 0.0 | 0.0 | 0.00 | 0.00 | 0.00 | 69 | 1008.7 |
| 20260508030055 | 40 | 0 | 0.0 | 3.0 | 0.00 | 0.00 | 0.00 | 67 | 1008.7 |
| 20260508024600 | 39 | 188 | 0.0 | 1.0 | 0.00 | 0.00 | 0.00 | 70 | 1008.8 |
| 20260508023056 | 40 | 189 | 1.0 | 2.0 | 0.00 | 0.00 | 0.00 | 69 | 1008.6 |
| 20260508021555 | 41 | 204 | 1.0 | 1.0 | 0.00 | 0.00 | 0.00 | 65 | 1008.7 |
| 20260508020100 | 42 | 252 | 0.0 | 1.0 | 0.00 | 0.00 | 0.00 | 61 | 1008.7 |
| 20260508014558 | 44 | 0 | 0.0 | 0.0 | 0.00 | 0.00 | 0.00 | 59 | 1008.6 |
| 20260508013054 | 45 | 0 | 0.0 | 0.0 | 0.00 | 0.00 | 0.00 | 56 | 1008.5 |
| 20260508011605 | 47 | 0 | 0.0 | 0.0 | 0.00 | 0.00 | 0.00 | 50 | 1008.5 |
| 20260508010057 | 49 | 0 | 0.0 | 1.0 | 0.00 | 0.00 | 0.00 | 47 | 1008.3 |
| 20260508004559 | 50 | 268 | 1.0 | 6.0 | 0.00 | 0.00 | 0.00 | 46 | 1008.3 |
| 20260508003058 | 51 | 254 | 1.0 | 5.0 | 0.00 | 0.00 | 0.00 | 45 | 1008.3 |
| 20260508001556 | 51 | 283 | 1.0 | 5.0 | 0.00 | 0.00 | 0.00 | 44 | 1008.2 |
| 20260508000058 | 51 | 350 | 3.0 | 5.0 | 0.00 | 0.00 | 0.00 | 47 | 1008.2 |
| 20260507234559 | 50 | 0 | 0.0 | 3.0 | 0.00 | 0.00 | 0.00 | 49 | 1008.4 |
| 20260507233055 | 50 | 0 | 0.0 | 1.0 | 0.00 | 0.00 | 0.00 | 49 | 1008.4 |
| 20260507231559 | 50 | 0 | 2.0 | 9.0 | 0.00 | 0.00 | 0.00 | 46 | 1008.5 |
| 20260507230053 | 50 | 46 | 0.0 | 3.0 | 0.00 | 0.00 | 0.00 | 48 | 1008.4 |
| 20260507224559 | 50 | 271 | 0.0 | 8.0 | 0.00 | 0.00 | 0.00 | 46 | 1008.4 |
| 20260507223058 | 50 | 17 | 2.0 | 8.0 | 0.00 | 0.00 | 0.00 | 46 | 1008.5 |
| 20260507221557 | 50 | 238 | 2.0 | 8.0 | 0.00 | 0.00 | 0.00 | 48 | 1008.5 |
| 20260507220055 | 50 | 289 | 2.0 | 5.0 | 0.00 | 0.00 | 0.00 | 45 | 1008.5 |
| 20260507214553 | 51 | 259 | 2.0 | 8.0 | 0.00 | 0.00 | 0.00 | 41 | 1008.5 |
| 20260507213054 | 51 | 167 | 3.0 | 9.0 | 0.00 | 0.00 | 0.00 | 39 | 1008.2 |
| 20260507211555 | 52 | 271 | 2.0 | 11.0 | 0.00 | 0.00 | 0.00 | 41 | 1008.4 |